Time;durP1;ratioP1;P1;durP2;ratioP2;P2;SDS_P1;SDS_P2;PMS_P1;PMS_P2;Temp;Humidity;BMP_temperature;BMP_pressure;BME280_temperature;BME280_humidity;BME280_pressure;Samples;Min_cycle;Max_cycle;Signal;HPM_P1;HPM_P2
2021/08/24 00:00:26;;;;;;;6.85;2.90;;;16.70;99.90;;;;;;4978099;28;38436;-81
2021/08/24 00:02:53;;;;;;;4.13;3.33;;;16.70;99.90;;;;;;4992767;28;39058;-81
2021/08/24 00:05:28;;;;;;;6.20;2.45;;;16.70;99.90;;;;;;4978290;28;36850;-81
2021/08/24 00:07:58;;;;;;;5.18;2.90;;;16.70;99.90;;;;;;4992261;28;39910;-80
2021/08/24 00:10:30;;;;;;;8.50;3.00;;;16.70;99.90;;;;;;4992673;28;38341;-81
2021/08/24 00:13:02;;;;;;;7.20;3.30;;;16.70;99.90;;;;;;4973287;28;37670;-81
2021/08/24 00:15:28;;;;;;;;;;;16.70;99.90;;;;;;4970655;28;48168;-81
2021/08/24 00:17:55;;;;;;;4.70;2.78;;;16.70;99.90;;;;;;4995491;28;39303;-81
2021/08/24 00:20:22;;;;;;;5.90;3.22;;;16.70;99.90;;;;;;4971513;28;38051;-81
2021/08/24 00:22:49;;;;;;;6.00;3.15;;;16.70;99.90;;;;;;4974775;28;36860;-81
2021/08/24 00:25:16;;;;;;;2.88;2.30;;;16.60;99.90;;;;;;4976061;28;37162;-81
2021/08/24 00:27:42;;;;;;;4.35;2.35;;;16.60;99.90;;;;;;4975957;28;38038;-81
2021/08/24 00:30:09;;;;;;;4.65;2.85;;;16.70;99.90;;;;;;4990705;28;39024;-79
2021/08/24 00:32:36;;;;;;;4.35;2.65;;;16.70;99.90;;;;;;4995766;28;37970;-81
2021/08/24 00:35:03;;;;;;;4.85;2.58;;;16.70;99.90;;;;;;4994036;28;38536;-81
2021/08/24 00:37:30;;;;;;;3.78;2.38;;;16.60;99.90;;;;;;4988665;28;39877;-81
2021/08/24 00:40:04;;;;;;;4.72;2.47;;;16.60;99.90;;;;;;4978497;28;38403;-82
2021/08/24 00:42:46;;;;;;;3.72;2.60;;;16.60;99.90;;;;;;4974381;28;48109;-81
2021/08/24 00:45:15;;;;;;;7.47;2.50;;;16.50;99.90;;;;;;4977998;28;36285;-81
2021/08/24 00:47:48;;;;;;;5.93;2.40;;;16.50;99.90;;;;;;4976747;28;39353;-81
2021/08/24 00:50:45;;;;;;;3.75;2.28;;;16.50;99.90;;;;;;4991718;23;39795;-81
2021/08/24 00:53:16;;;;;;;4.82;2.28;;;16.50;99.90;;;;;;4913101;29;37568;-81
2021/08/24 00:55:45;;;;;;;2.80;2.00;;;16.50;99.90;;;;;;4935254;29;37465;-81
2021/08/24 00:58:13;;;;;;;5.57;2.00;;;16.50;99.90;;;;;;5158220;23;38893;-82
2021/08/24 01:00:43;;;;;;;3.10;2.10;;;16.50;99.90;;;;;;4940082;29;38649;-80
2021/08/24 01:03:22;;;;;;;4.55;1.67;;;16.50;99.90;;;;;;4924586;28;36948;-81
2021/08/24 01:05:51;;;;;;;3.10;2.30;;;16.50;99.90;;;;;;4930771;29;35700;-82
2021/08/24 01:08:39;;;;;;;4.95;1.92;;;16.50;99.90;;;;;;4946502;28;38775;-80
2021/08/24 01:11:21;;;;;;;3.65;1.88;;;16.50;99.90;;;;;;4951197;28;38977;-80
2021/08/24 01:14:23;;;;;;;3.10;1.90;;;16.40;99.90;;;;;;4954479;28;39399;-81
2021/08/24 01:17:25;;;;;;;4.43;1.90;;;16.40;99.90;;;;;;4928102;28;48580;-81
2021/08/24 01:20:17;;;;;;;3.58;1.98;;;16.40;99.90;;;;;;4925569;29;47053;-81
2021/08/24 01:23:02;;;;;;;3.87;2.00;;;16.40;99.90;;;;;;4943651;28;48612;-81
2021/08/24 01:25:37;;;;;;;4.30;2.13;;;16.40;99.90;;;;;;4923226;28;48601;-81
2021/08/24 01:28:21;;;;;;;3.63;2.10;;;16.30;99.90;;;;;;4951817;29;38549;-81
2021/08/24 01:31:24;;;;;;;2.72;1.92;;;16.30;99.90;;;;;;4948175;28;49301;-81
2021/08/24 01:34:02;;;;;;;;;;;16.30;99.90;;;;;;4937068;29;48238;-81
2021/08/24 01:36:50;;;;;;;3.85;1.88;;;16.20;99.90;;;;;;4950347;29;49793;-81
2021/08/24 01:39:38;;;;;;;6.38;2.65;;;16.10;99.90;;;;;;4942394;28;37637;-82
2021/08/24 01:42:24;;;;;;;3.88;2.20;;;16.10;99.90;;;;;;4951843;28;39980;-79
2021/08/24 01:44:53;;;;;;;6.55;2.20;;;16.10;99.90;;;;;;4947702;28;39492;-82
2021/08/24 01:47:28;;;;;;;3.53;2.10;;;16.10;99.90;;;;;;4930846;29;37995;-80
2021/08/24 01:50:13;;;;;;;5.07;2.45;;;16.00;99.90;;;;;;4941641;28;37901;-80
2021/08/24 01:53:14;;;;;;;4.20;2.22;;;16.00;99.90;;;;;;4920303;28;46798;-81
2021/08/24 01:55:48;;;;;;;4.78;2.72;;;15.90;99.90;;;;;;4919418;29;46878;-80
2021/08/24 01:58:38;;;;;;;3.20;2.38;;;15.90;99.90;;;;;;4939867;29;37340;-80
2021/08/24 02:01:07;;;;;;;5.10;2.50;;;15.90;99.90;;;;;;4936536;29;36159;-80
2021/08/24 02:03:38;;;;;;;5.45;2.70;;;15.80;99.90;;;;;;4933357;29;40566;-81
2021/08/24 02:06:13;;;;;;;4.63;2.70;;;15.70;99.90;;;;;;4922301;29;40488;-80
2021/08/24 02:08:45;;;;;;;7.10;2.72;;;15.70;99.90;;;;;;5016210;23;36858;-81
2021/08/24 02:11:12;;;;;;;4.85;2.63;;;15.70;99.90;;;;;;4929038;29;36484;-81
2021/08/24 02:13:45;;;;;;;3.53;2.33;;;15.60;99.90;;;;;;4926412;29;39346;-80
2021/08/24 02:16:16;;;;;;;4.40;2.50;;;15.60;99.90;;;;;;4935004;28;37096;-81
2021/08/24 02:18:49;;;;;;;5.22;3.15;;;15.50;99.90;;;;;;4911626;29;38426;-80
2021/08/24 02:21:22;;;;;;;3.45;2.80;;;15.50;99.90;;;;;;4924719;29;36018;-81
2021/08/24 02:23:57;;;;;;;3.45;2.90;;;15.50;99.90;;;;;;4929970;29;38152;-81
2021/08/24 02:26:28;;;;;;;7.75;2.90;;;15.50;99.90;;;;;;4914473;29;38700;-81
2021/08/24 02:28:57;;;;;;;4.18;2.72;;;15.40;99.90;;;;;;4919565;29;37253;-81
2021/08/24 02:31:53;;;;;;;4.45;2.90;;;15.40;99.90;;;;;;4925785;29;37742;-81
2021/08/24 02:34:52;;;;;;;4.72;2.55;;;15.40;99.90;;;;;;4900693;29;39043;-81
2021/08/24 02:37:30;;;;;;;5.90;3.10;;;15.40;99.90;;;;;;4879450;29;37576;-80
2021/08/24 02:40:07;;;;;;;8.50;3.30;;;15.30;99.90;;;;;;4918793;29;38256;-81
2021/08/24 02:42:43;;;;;;;5.38;3.15;;;15.30;99.90;;;;;;4915189;29;47065;-80
2021/08/24 02:45:14;;;;;;;7.53;3.28;;;15.30;99.90;;;;;;4912441;29;37606;-79
2021/08/24 02:47:41;;;;;;;6.10;2.85;;;15.20;99.90;;;;;;4917108;29;39728;-81
2021/08/24 02:50:09;;;;;;;4.55;3.35;;;15.10;99.90;;;;;;4900876;29;40038;-80
2021/08/24 02:52:36;;;;;;;5.05;3.22;;;15.20;99.90;;;;;;4916006;29;36464;-81
2021/08/24 02:55:05;;;;;;;4.90;2.97;;;15.20;99.90;;;;;;4921714;29;39776;-80
2021/08/24 02:57:31;;;;;;;7.15;3.70;;;15.20;99.90;;;;;;4910740;29;47496;-80
2021/08/24 02:59:57;;;;;;;5.82;3.47;;;15.20;99.90;;;;;;4914186;29;36738;-80
2021/08/24 03:02:23;;;;;;;6.40;3.85;;;15.20;99.90;;;;;;4918589;29;37041;-80
2021/08/24 03:04:50;;;;;;;5.85;3.60;;;15.20;99.90;;;;;;4894255;29;37792;-80
2021/08/24 03:07:23;;;;;;;4.75;3.42;;;15.10;99.90;;;;;;4915415;29;39456;-80
2021/08/24 03:09:49;;;;;;;7.07;4.18;;;15.20;99.90;;;;;;4917801;29;38610;-80
2021/08/24 03:12:39;;;;;;;6.88;4.18;;;15.20;99.90;;;;;;4897325;29;37643;-80
2021/08/24 03:15:05;;;;;;;8.00;3.97;;;15.20;99.90;;;;;;4915240;29;39078;-80
2021/08/24 03:17:57;;;;;;;9.10;4.53;;;15.20;99.90;;;;;;4919308;29;37710;-82
2021/08/24 03:20:30;;;;;;;6.20;4.40;;;15.20;99.90;;;;;;4912000;29;37560;-80
2021/08/24 03:22:58;;;;;;;6.80;4.63;;;15.20;99.90;;;;;;4920850;29;37480;-81
2021/08/24 03:25:24;;;;;;;5.15;3.90;;;15.20;99.90;;;;;;4916445;29;37651;-80
2021/08/24 03:27:54;;;;;;;7.72;4.47;;;15.20;99.90;;;;;;4903271;29;38588;-80
2021/08/24 03:30:21;;;;;;;11.20;4.45;;;15.20;99.90;;;;;;4900168;29;38905;-80
2021/08/24 03:32:48;;;;;;;8.57;4.30;;;15.30;99.90;;;;;;4921315;29;36045;-80
2021/08/24 03:35:19;;;;;;;9.57;5.20;;;15.30;99.90;;;;;;4924798;29;37706;-81
2021/08/24 03:37:45;;;;;;;12.32;4.65;;;15.30;99.90;;;;;;4906986;29;37260;-81
2021/08/24 03:40:12;;;;;;;7.00;3.80;;;15.40;99.90;;;;;;4922429;28;38553;-80
2021/08/24 03:42:39;;;;;;;7.90;3.67;;;15.40;99.90;;;;;;4946834;29;37499;-79
2021/08/24 03:45:07;;;;;;;6.78;3.80;;;15.50;99.90;;;;;;4923525;28;39172;-76
2021/08/24 03:47:33;;;;;;;7.95;4.38;;;15.50;99.90;;;;;;4946805;28;37739;-80
2021/08/24 03:49:59;;;;;;;12.13;4.82;;;15.50;99.90;;;;;;4946274;28;36095;-81
2021/08/24 03:52:27;;;;;;;7.47;3.90;;;15.50;99.90;;;;;;4922861;29;35956;-81
2021/08/24 03:54:56;;;;;;;9.13;3.55;;;15.60;99.90;;;;;;4941551;28;38752;-81
2021/08/24 04:00:07;;;;;;;7.35;4.38;;;15.60;99.90;;;;;;5268909;23;20135;-81
2021/08/24 04:02:33;;;;;;;8.32;4.35;;;15.60;99.90;;;;;;4932669;29;49033;-81
2021/08/24 04:05:03;;;;;;;9.77;4.10;;;15.60;99.90;;;;;;4932769;28;37342;-81
2021/08/24 04:07:33;;;;;;;12.38;4.18;;;15.60;99.90;;;;;;4934825;28;39569;-81
2021/08/24 04:09:59;;;;;;;9.13;4.53;;;15.50;99.90;;;;;;4945843;28;38640;-81
2021/08/24 04:12:26;;;;;;;8.90;4.15;;;15.50;99.90;;;;;;4936502;28;37607;-81
2021/08/24 04:14:55;;;;;;;9.82;4.22;;;15.60;99.90;;;;;;4940056;28;39014;-81
2021/08/24 04:17:22;;;;;;;6.53;4.03;;;15.60;99.90;;;;;;4941867;28;39747;-81
2021/08/24 04:19:48;;;;;;;10.02;4.75;;;15.60;99.90;;;;;;4938726;29;37912;-81
2021/08/24 04:22:23;;;;;;;8.93;4.53;;;15.60;99.90;;;;;;4941936;28;37457;-81
2021/08/24 04:24:49;;;;;;;6.70;3.65;;;15.60;99.90;;;;;;4936951;28;40469;-81
2021/08/24 04:27:15;;;;;;;11.00;4.55;;;15.60;99.90;;;;;;4930741;28;38066;-81
2021/08/24 04:29:41;;;;;;;9.52;4.50;;;15.60;99.90;;;;;;4945087;28;39568;-81
2021/08/24 04:32:07;;;;;;;11.43;5.00;;;15.60;99.90;;;;;;4941962;28;37807;-80
2021/08/24 04:34:34;;;;;;;7.45;4.68;;;15.60;99.90;;;;;;4936406;28;38505;-82
2021/08/24 04:37:01;;;;;;;8.00;4.32;;;15.60;99.90;;;;;;4940055;28;39129;-81
2021/08/24 04:39:27;;;;;;;12.45;5.00;;;15.60;99.90;;;;;;4938426;28;49033;-81
2021/08/24 04:41:53;;;;;;;5.00;4.07;;;15.60;99.90;;;;;;4953317;28;36090;-81
2021/08/24 04:44:19;;;;;;;4.05;3.60;;;15.60;99.90;;;;;;4935625;28;39709;-81
2021/08/24 04:46:45;;;;;;;8.23;4.75;;;15.60;99.90;;;;;;4945631;28;39051;-81
2021/08/24 04:49:12;;;;;;;9.65;4.80;;;15.60;99.90;;;;;;4944180;28;38743;-80
2021/08/24 04:51:39;;;;;;;9.68;4.07;;;15.60;99.90;;;;;;4939472;28;37638;-81
2021/08/24 04:54:06;;;;;;;10.52;5.60;;;15.60;99.90;;;;;;4956180;28;38445;-80
2021/08/24 04:56:32;;;;;;;11.02;5.75;;;15.60;99.90;;;;;;4939343;28;38035;-81
2021/08/24 04:58:58;;;;;;;10.52;6.15;;;15.60;99.90;;;;;;4945583;29;38029;-81
2021/08/24 05:01:24;;;;;;;11.23;5.45;;;15.60;99.90;;;;;;4945706;28;37961;-81
2021/08/24 05:03:50;;;;;;;9.57;6.13;;;15.60;99.90;;;;;;4947765;28;37298;-81
2021/08/24 05:06:16;;;;;;;9.13;5.93;;;15.60;99.90;;;;;;4949064;28;38284;-81
2021/08/24 05:08:42;;;;;;;11.02;6.03;;;15.60;99.90;;;;;;4941704;28;37218;-81
2021/08/24 05:11:09;;;;;;;12.50;6.60;;;15.60;99.90;;;;;;4941810;28;36670;-82
2021/08/24 05:13:36;;;;;;;8.48;5.95;;;15.60;99.90;;;;;;4945050;28;40132;-81
2021/08/24 05:16:07;;;;;;;10.23;6.22;;;15.60;99.90;;;;;;4956135;28;38251;-80
2021/08/24 05:18:39;;;;;;;14.37;7.40;;;15.60;99.90;;;;;;4944897;28;36883;-81
2021/08/24 05:21:13;;;;;;;10.87;6.57;;;15.50;99.90;;;;;;4949235;28;36560;-81
2021/08/24 05:23:42;;;;;;;11.65;7.13;;;15.50;99.90;;;;;;4945264;28;39496;-81
2021/08/24 05:26:11;;;;;;;10.77;6.45;;;15.60;99.90;;;;;;4946416;28;38209;-81
2021/08/24 05:28:38;;;;;;;9.05;6.18;;;15.60;99.90;;;;;;4937912;28;38612;-80
2021/08/24 05:31:04;;;;;;;12.55;7.38;;;15.60;99.90;;;;;;4936761;28;38452;-81
2021/08/24 05:33:31;;;;;;;8.88;5.95;;;15.60;99.90;;;;;;4936036;28;37826;-81
2021/08/24 05:35:59;;;;;;;12.13;7.00;;;15.60;99.90;;;;;;4944219;28;37508;-81
2021/08/24 05:38:26;;;;;;;10.57;6.40;;;15.60;99.90;;;;;;4940293;28;39232;-81
2021/08/24 05:40:54;;;;;;;10.13;6.90;;;15.70;99.90;;;;;;4946623;28;36090;-80
2021/08/24 05:43:24;;;;;;;12.70;7.20;;;15.70;99.90;;;;;;4936223;28;38233;-81
2021/08/24 05:46:20;;;;;;;11.55;7.05;;;15.80;99.90;;;;;;4950064;28;41689;-81
2021/08/24 05:48:46;;;;;;;12.85;6.50;;;15.80;99.90;;;;;;4940333;28;48229;-81
2021/08/24 05:51:18;;;;;;;11.15;7.20;;;15.80;99.90;;;;;;4942454;28;37699;-81
2021/08/24 05:53:46;;;;;;;9.35;6.63;;;15.80;99.90;;;;;;4945905;28;38254;-81
2021/08/24 05:56:21;;;;;;;11.20;6.70;;;15.90;99.90;;;;;;4947013;28;38583;-81
2021/08/24 05:58:47;;;;;;;13.65;7.07;;;15.90;99.90;;;;;;4947532;28;39243;-81
2021/08/24 06:01:23;;;;;;;14.15;6.68;;;16.00;99.90;;;;;;4946434;28;38472;-82
2021/08/24 06:03:50;;;;;;;10.70;6.85;;;16.00;99.90;;;;;;4949784;28;37989;-81
2021/08/24 06:06:24;;;;;;;10.00;6.32;;;16.10;99.90;;;;;;4943272;28;39527;-81
2021/08/24 06:08:50;;;;;;;13.85;6.88;;;16.10;99.90;;;;;;4939528;28;39010;-81
2021/08/24 06:11:19;;;;;;;7.32;5.90;;;16.20;99.90;;;;;;4939893;28;36066;-81
2021/08/24 06:13:46;;;;;;;9.32;5.90;;;16.20;99.90;;;;;;4935496;28;40385;-79
2021/08/24 06:16:12;;;;;;;8.90;5.55;;;16.20;99.90;;;;;;4939540;28;36937;-81
2021/08/24 06:18:41;;;;;;;12.25;5.78;;;16.20;99.90;;;;;;4949346;28;38137;-80
2021/08/24 06:21:07;;;;;;;10.88;5.35;;;16.30;99.90;;;;;;4943418;28;36192;-80
2021/08/24 06:23:34;;;;;;;9.30;5.20;;;16.30;99.90;;;;;;4942584;28;39092;-81
2021/08/24 06:26:00;;;;;;;6.47;4.78;;;16.40;99.90;;;;;;4941878;28;39097;-81
2021/08/24 06:28:26;;;;;;;13.27;4.95;;;16.40;99.90;;;;;;4936570;28;37977;-81
2021/08/24 06:30:52;;;;;;;8.70;5.47;;;16.40;99.90;;;;;;4940330;28;38399;-81
2021/08/24 06:33:24;;;;;;;8.30;4.88;;;16.50;99.90;;;;;;4936466;28;39336;-81
2021/08/24 06:35:51;;;;;;;9.63;4.63;;;16.50;99.90;;;;;;4939717;28;38441;-81
2021/08/24 06:38:17;;;;;;;10.48;5.25;;;16.50;99.90;;;;;;4934936;28;37358;-79
2021/08/24 06:40:43;;;;;;;8.43;5.18;;;16.60;99.90;;;;;;4930136;28;37289;-78
2021/08/24 06:43:09;;;;;;;10.73;5.00;;;16.70;99.90;;;;;;4933876;28;38606;-79
2021/08/24 06:45:35;;;;;;;7.95;5.15;;;16.70;99.90;;;;;;4933677;28;38790;-79
2021/08/24 06:48:02;;;;;;;7.85;5.50;;;16.70;99.90;;;;;;4940910;28;38273;-80
2021/08/24 06:50:37;;;;;;;10.65;5.80;;;16.70;99.90;;;;;;4943710;28;50071;-79
2021/08/24 06:55:39;;;;;;;9.90;5.35;;;16.90;99.90;;;;;;5431811;23;20045;-80
2021/08/24 06:58:08;;;;;;;9.65;4.95;;;16.90;99.90;;;;;;4928639;28;39726;-80
2021/08/24 07:00:36;;;;;;;9.18;5.10;;;17.10;99.90;;;;;;4924675;28;38488;-79
2021/08/24 07:03:05;;;;;;;5.72;4.40;;;17.30;99.90;;;;;;4916344;29;37269;-78
2021/08/24 07:05:33;;;;;;;7.78;4.38;;;17.50;99.90;;;;;;4918325;28;37423;-79
2021/08/24 07:08:00;;;;;;;7.63;4.25;;;17.60;99.90;;;;;;5042966;23;37934;-79
2021/08/24 07:10:26;;;;;;;9.75;4.07;;;17.80;99.90;;;;;;4937075;28;35478;-80
2021/08/24 07:12:54;;;;;;;7.72;3.70;;;18.00;99.90;;;;;;4949803;28;39828;-79
2021/08/24 07:15:22;;;;;;;8.45;3.83;;;18.10;99.90;;;;;;4950618;28;36865;-79
2021/08/24 07:17:52;;;;;;;5.93;3.55;;;18.30;99.90;;;;;;4952977;28;39481;-80
2021/08/24 07:20:19;;;;;;;9.18;3.90;;;18.40;99.90;;;;;;5091397;23;36217;-82
2021/08/24 07:22:51;;;;;;;7.60;3.50;;;18.60;99.90;;;;;;4958091;28;40155;-80
2021/08/24 07:25:20;;;;;;;10.20;3.40;;;18.60;99.90;;;;;;4949651;28;37297;-79
2021/08/24 07:27:47;;;;;;;8.27;3.70;;;18.60;99.90;;;;;;4928498;29;37059;-78
2021/08/24 07:30:15;;;;;;;6.20;3.22;;;18.70;99.90;;;;;;4941897;28;39099;-79
2021/08/24 07:32:42;;;;;;;6.38;2.97;;;18.80;99.90;;;;;;4947699;28;39542;-79
2021/08/24 07:35:09;;;;;;;8.77;2.95;;;18.90;99.90;;;;;;4964711;28;38788;-79
2021/08/24 07:37:41;;;;;;;6.45;3.05;;;19.10;99.90;;;;;;4948292;28;38010;-79
2021/08/24 07:40:09;;;;;;;5.63;2.35;;;19.30;99.90;;;;;;4943285;28;36342;-79
2021/08/24 07:42:37;;;;;;;7.70;2.90;;;19.40;99.90;;;;;;4950666;28;39744;-80
2021/08/24 07:45:05;;;;;;;6.65;2.50;;;19.50;99.90;;;;;;4954401;28;38155;-81
2021/08/24 07:47:32;;;;;;;4.43;2.50;;;19.50;99.90;;;;;;4970572;28;48778;-79
2021/08/24 07:49:58;;;;;;;6.00;2.22;;;19.40;99.90;;;;;;4942224;28;36511;-80
2021/08/24 07:52:27;;;;;;;4.47;2.00;;;19.50;99.90;;;;;;4963129;28;38918;-80
2021/08/24 07:54:54;;;;;;;7.00;2.75;;;19.70;99.90;;;;;;4941952;28;37602;-79
2021/08/24 07:57:20;;;;;;;4.95;2.20;;;19.80;99.90;;;;;;4960987;28;38363;-80
2021/08/24 07:59:46;;;;;;;5.38;2.33;;;20.00;99.90;;;;;;4952416;28;37010;-80
2021/08/24 08:02:15;;;;;;;5.00;2.03;;;20.20;99.90;;;;;;4957151;28;39833;-79
2021/08/24 08:07:19;;;;;;;4.43;1.88;;;20.50;99.90;;;;;;5123182;23;20054;-79
2021/08/24 08:09:45;;;;;;;4.72;1.90;;;20.50;99.90;;;;;;4998366;23;37723;-79
2021/08/24 08:12:20;;;;;;;7.50;2.55;;;20.40;99.90;;;;;;4909636;28;38294;-80
2021/08/24 08:14:47;;;;;;;4.32;2.03;;;20.30;99.90;;;;;;4919215;28;39008;-80
2021/08/24 08:17:13;;;;;;;5.75;1.83;;;20.40;99.90;;;;;;4925069;28;37916;-80
2021/08/24 08:19:40;;;;;;;5.05;2.13;;;20.50;99.90;;;;;;5009398;23;36850;-81
2021/08/24 08:22:07;;;;;;;3.22;1.83;;;20.60;99.90;;;;;;4912294;28;38953;-79
2021/08/24 08:24:34;;;;;;;4.55;1.98;;;20.80;99.90;;;;;;4905711;29;38305;-80
2021/08/24 08:27:01;;;;;;;5.13;2.47;;;20.90;99.90;;;;;;4915670;29;38828;-80
2021/08/24 08:29:27;;;;;;;5.18;2.10;;;21.00;99.90;;;;;;4998079;23;46985;-80
2021/08/24 08:31:53;;;;;;;5.40;2.22;;;21.20;99.90;;;;;;4924102;29;37948;-80
2021/08/24 08:36:59;;;;;;;8.10;2.38;;;21.20;99.90;;;;;;5447608;23;20058;-81
2021/08/24 08:39:25;;;;;;;4.93;2.03;;;21.20;99.90;;;;;;4953037;29;37680;-80
2021/08/24 08:42:23;;;;;;;5.30;2.10;;;21.40;99.90;;;;;;4933731;28;37926;-80
2021/08/24 08:44:55;;;;;;;4.38;2.30;;;21.60;99.90;;;;;;4938136;28;47202;-78
2021/08/24 08:47:32;;;;;;;;;;;21.40;99.90;;;;;;4932382;28;38477;-81
2021/08/24 08:50:05;;;;;;;5.47;2.10;;;21.30;99.90;;;;;;4935626;28;38688;-80
2021/08/24 08:52:50;;;;;;;5.20;2.65;;;21.30;99.90;;;;;;4945245;28;47464;-81
2021/08/24 08:55:57;;;;;;;3.15;1.90;;;21.30;99.90;;;;;;5853071;23;38268;-83
2021/08/24 08:58:39;;;;;;;5.53;1.88;;;21.60;99.90;;;;;;5261600;23;46541;-80
2021/08/24 09:01:38;;;;;;;2.58;1.63;;;21.70;99.90;;;;;;4929109;28;38260;-79
2021/08/24 09:04:26;;;;;;;3.17;2.05;;;21.90;99.90;;;;;;4933866;28;39155;-80
2021/08/24 09:06:56;;;;;;;3.28;1.77;;;22.10;99.90;;;;;;4936717;28;40119;-79
2021/08/24 09:09:23;;;;;;;5.93;2.40;;;22.10;99.90;;;;;;4934032;29;36894;-80
2021/08/24 09:11:51;;;;;;;7.65;1.90;;;22.10;99.90;;;;;;4932202;28;37361;-80
2021/08/24 09:14:32;;;;;;;3.97;2.00;;;22.10;99.90;;;;;;4912506;29;39661;-80
2021/08/24 09:17:06;;;;;;;2.83;1.67;;;22.10;99.90;;;;;;4916626;29;38904;-82
2021/08/24 09:19:47;;;;;;;4.70;2.15;;;22.10;99.90;;;;;;4922501;28;47183;-79
2021/08/24 09:22:17;;;;;;;3.08;2.10;;;22.00;99.90;;;;;;4909569;28;36578;-78
2021/08/24 09:24:47;;;;;;;3.80;2.10;;;21.90;99.90;;;;;;4932915;28;39660;-80
2021/08/24 09:27:46;;;;;;;3.42;2.05;;;21.90;99.90;;;;;;4922429;29;38753;-80
2021/08/24 09:30:14;;;;;;;4.63;1.92;;;22.00;99.90;;;;;;4920336;28;38413;-79
2021/08/24 09:32:40;;;;;;;4.05;1.70;;;22.10;99.90;;;;;;4931982;29;36161;-80
2021/08/24 09:35:24;;;;;;;3.58;1.83;;;22.10;99.90;;;;;;4928323;28;37395;-78
2021/08/24 09:37:50;;;;;;;3.88;1.52;;;22.10;99.90;;;;;;4915739;29;38915;-80
2021/08/24 09:40:34;;;;;;;2.63;1.70;;;22.10;99.90;;;;;;4913645;28;36745;-79
2021/08/24 09:43:23;;;;;;;2.88;1.30;;;22.10;99.90;;;;;;4916069;28;36117;-79
2021/08/24 09:46:15;;;;;;;3.30;1.55;;;22.20;99.90;;;;;;4926801;28;48664;-80
2021/08/24 09:48:50;;;;;;;5.85;2.00;;;22.50;99.90;;;;;;4926351;28;47551;-79
2021/08/24 09:51:50;;;;;;;4.18;2.10;;;22.80;99.90;;;;;;4922062;28;39144;-79
2021/08/24 09:54:35;;;;;;;3.47;1.70;;;22.80;99.90;;;;;;4926015;28;37905;-79
2021/08/24 09:57:16;;;;;;;3.65;1.75;;;23.00;99.90;;;;;;4931887;28;38556;-79
2021/08/24 09:59:58;;;;;;;4.38;2.15;;;22.80;99.90;;;;;;4927379;28;48884;-78
2021/08/24 10:02:38;;;;;;;5.47;1.95;;;22.60;99.90;;;;;;4930142;29;38716;-79
2021/08/24 10:05:09;;;;;;;5.70;1.90;;;22.70;99.90;;;;;;4911342;29;38934;-78
2021/08/24 10:07:47;;;;;;;4.25;2.15;;;23.00;99.90;;;;;;4910442;29;39361;-80
2021/08/24 10:10:29;;;;;;;4.55;1.83;;;23.10;99.90;;;;;;4913160;28;38722;-79
2021/08/24 10:12:58;;;;;;;4.43;1.60;;;23.20;99.90;;;;;;4911635;29;39110;-78
2021/08/24 10:15:35;;;;;;;4.82;1.95;;;23.20;99.90;;;;;;4928530;29;36919;-79
2021/08/24 10:18:11;;;;;;;4.63;1.70;;;23.30;99.90;;;;;;4910065;28;39476;-79
2021/08/24 10:21:01;;;;;;;5.03;1.70;;;23.20;99.90;;;;;;4933249;28;48580;-78
2021/08/24 10:23:52;;;;;;;5.00;1.80;;;23.20;99.90;;;;;;4927114;29;50332;-79
2021/08/24 10:26:28;;;;;;;5.40;1.88;;;23.20;99.90;;;;;;4925830;28;36131;-79
2021/08/24 10:28:57;;;;;;;1.77;1.17;;;23.00;99.90;;;;;;4930260;28;38245;-79
2021/08/24 10:31:34;;;;;;;6.18;2.33;;;23.20;99.90;;;;;;4924480;28;38190;-78
2021/08/24 10:34:05;;;;;;;1.90;1.45;;;23.20;99.90;;;;;;4926047;28;38911;-78
2021/08/24 10:36:44;;;;;;;2.45;1.40;;;23.20;99.90;;;;;;4914146;29;47242;-80
2021/08/24 10:39:22;;;;;;;2.35;1.40;;;23.30;99.90;;;;;;4928035;28;40276;-80
2021/08/24 10:42:09;;;;;;;3.85;1.25;;;23.60;99.90;;;;;;4922847;28;38241;-79
2021/08/24 10:44:52;;;;;;;2.75;1.25;;;23.80;99.90;;;;;;4907446;29;47279;-79
2021/08/24 10:47:49;;;;;;;4.18;1.35;;;23.90;99.90;;;;;;4934838;28;37196;-79
2021/08/24 10:50:57;;;;;;;2.22;1.05;;;23.50;99.90;;;;;;4951094;28;39985;-80
2021/08/24 10:53:44;;;;;;;1.55;1.10;;;23.40;99.90;;;;;;4906729;29;39270;-80
2021/08/24 10:56:10;;;;;;;5.65;1.15;;;23.50;99.90;;;;;;4930898;28;38298;-80
2021/08/24 10:58:58;;;;;;;2.45;1.35;;;23.40;99.90;;;;;;4930766;28;37846;-81
2021/08/24 11:01:49;;;;;;;2.60;1.40;;;23.50;99.90;;;;;;4929404;28;38027;-79
2021/08/24 11:04:52;;;;;;;4.53;1.55;;;23.30;99.90;;;;;;4905111;29;37252;-80
2021/08/24 11:07:47;;;;;;;3.42;1.23;;;23.30;99.90;;;;;;4913618;28;37673;-79
2021/08/24 11:10:54;;;;;;;3.38;1.25;;;23.40;99.90;;;;;;4934706;28;38055;-79
2021/08/24 11:13:36;;;;;;;2.92;1.50;;;23.50;99.90;;;;;;4912976;29;37730;-80
2021/08/24 11:16:23;;;;;;;2.20;1.20;;;23.50;99.90;;;;;;4928038;29;39314;-76
2021/08/24 11:19:07;;;;;;;2.33;1.40;;;23.40;99.90;;;;;;4927535;28;38112;-79
2021/08/24 11:21:46;;;;;;;1.38;0.98;;;23.50;99.90;;;;;;4906373;29;47433;-78
2021/08/24 11:24:44;;;;;;;3.08;1.50;;;23.50;99.90;;;;;;4907140;29;39208;-79
2021/08/24 11:27:43;;;;;;;4.55;1.20;;;23.40;99.90;;;;;;4897873;29;38390;-80
2021/08/24 11:30:30;;;;;;;1.85;1.40;;;23.60;99.90;;;;;;4908927;29;38954;-80
2021/08/24 11:33:02;;;;;;;4.28;2.00;;;23.80;99.90;;;;;;4932536;29;38015;-80
2021/08/24 11:35:38;;;;;;;4.65;1.40;;;23.80;99.90;;;;;;4913895;29;47299;-80
2021/08/24 11:38:11;;;;;;;2.38;1.35;;;23.80;99.90;;;;;;4919562;29;37712;-79
2021/08/24 11:40:54;;;;;;;2.72;1.50;;;23.80;99.90;;;;;;4926842;29;37171;-79
2021/08/24 11:43:51;;;;;;;3.10;1.38;;;23.70;99.90;;;;;;4898561;29;36122;-80
2021/08/24 11:46:24;;;;;;;2.33;1.30;;;23.50;99.90;;;;;;4923883;29;39013;-79
2021/08/24 11:49:18;;;;;;;4.97;1.95;;;23.50;99.90;;;;;;4925007;29;38497;-79
2021/08/24 11:52:06;;;;;;;2.80;1.38;;;23.70;99.90;;;;;;4871680;29;47592;-80
2021/08/24 11:54:47;;;;;;;4.20;1.42;;;23.70;99.90;;;;;;4941932;28;47129;-80
2021/08/24 11:57:37;;;;;;;4.65;1.42;;;23.80;99.90;;;;;;4934797;28;39354;-79
2021/08/24 12:00:05;;;;;;;3.03;1.40;;;23.80;99.90;;;;;;4941479;28;37408;-81
2021/08/24 12:02:38;;;;;;;4.68;1.58;;;23.90;99.90;;;;;;4936318;28;47781;-79
2021/08/24 12:05:12;;;;;;;2.45;1.08;;;23.80;99.90;;;;;;4924630;29;36047;-80
2021/08/24 12:07:40;;;;;;;6.45;1.55;;;23.80;99.90;;;;;;4916613;29;47288;-79
2021/08/24 12:10:25;;;;;;;1.85;1.10;;;23.70;99.90;;;;;;4937049;28;38087;-80
2021/08/24 12:15:45;;;;;;;2.70;1.30;;;23.80;99.90;;;;;;5271521;23;20081;-81
2021/08/24 12:18:17;;;;;;;3.20;1.40;;;23.70;99.90;;;;;;4929258;29;37410;-78
2021/08/24 12:20:45;;;;;;;;;;;23.80;99.90;;;;;;4918454;29;38805;-79
2021/08/24 12:23:16;;;;;;;3.25;1.40;;;23.70;99.90;;;;;;4898470;29;37055;-79
2021/08/24 12:25:45;;;;;;;3.88;1.33;;;23.60;99.90;;;;;;4913868;29;35322;-79
2021/08/24 12:28:17;;;;;;;1.90;1.20;;;23.50;99.90;;;;;;4915001;29;39030;-79
2021/08/24 12:31:04;;;;;;;;;;;23.40;99.90;;;;;;4899207;29;37282;-77
2021/08/24 12:33:34;;;;;;;4.97;1.40;;;23.70;99.90;;;;;;4874116;29;47647;-77
2021/08/24 12:36:24;;;;;;;2.65;1.38;;;24.00;99.90;;;;;;4898876;29;36199;-78
2021/08/24 12:38:54;;;;;;;1.90;1.20;;;24.30;99.90;;;;;;4894259;29;46910;-78
2021/08/24 12:41:32;;;;;;;4.45;1.17;;;24.50;99.90;;;;;;4889879;29;37098;-78
2021/08/24 12:44:13;;;;;;;2.35;1.35;;;24.30;99.90;;;;;;4894588;29;37049;-79
2021/08/24 12:46:50;;;;;;;3.33;1.63;;;24.30;99.90;;;;;;4894669;29;47476;-78
2021/08/24 12:49:23;;;;;;;5.32;1.23;;;24.40;99.90;;;;;;4894222;29;37777;-79
2021/08/24 12:51:58;;;;;;;4.18;1.48;;;24.30;99.90;;;;;;4909609;29;38263;-79
2021/08/24 12:54:29;;;;;;;4.90;1.25;;;24.20;99.90;;;;;;4906098;29;20575;-79
2021/08/24 12:57:14;;;;;;;2.10;1.00;;;24.00;99.90;;;;;;4910022;29;37343;-79
2021/08/24 12:59:45;;;;;;;2.30;1.33;;;24.20;99.90;;;;;;4909886;29;48596;-77
2021/08/24 13:02:22;;;;;;;3.90;1.30;;;24.20;99.90;;;;;;4888069;29;38005;-77
2021/08/24 13:05:10;;;;;;;2.72;1.45;;;23.90;99.90;;;;;;4889333;29;38056;-77
2021/08/24 13:07:43;;;;;;;1.67;1.02;;;23.80;99.90;;;;;;4865376;29;46108;-77
2021/08/24 13:10:34;;;;;;;3.78;1.20;;;24.00;99.90;;;;;;4905450;29;40082;-78
2021/08/24 13:13:25;;;;;;;3.10;1.40;;;24.20;99.90;;;;;;4890435;29;38440;-80
2021/08/24 13:16:00;;;;;;;1.35;1.02;;;24.30;99.90;;;;;;4885896;29;47005;-79
2021/08/24 13:18:34;;;;;;;4.78;0.98;;;24.20;99.90;;;;;;4913501;29;37467;-80
2021/08/24 13:21:23;;;;;;;1.73;0.80;;;24.40;99.90;;;;;;4893196;29;39447;-79
2021/08/24 13:23:54;;;;;;;2.15;1.00;;;24.40;99.90;;;;;;4902683;29;49068;-79
2021/08/24 13:26:24;;;;;;;4.32;1.30;;;24.40;99.90;;;;;;4900631;29;36897;-79
2021/08/24 13:28:57;;;;;;;2.85;1.20;;;24.20;99.90;;;;;;4906442;28;36407;-78
2021/08/24 13:31:42;;;;;;;3.33;1.00;;;24.00;99.90;;;;;;4906974;29;39299;-78
2021/08/24 13:34:32;;;;;;;3.78;1.40;;;23.80;99.90;;;;;;4902999;29;37393;-78
2021/08/24 13:36:59;;;;;;;2.22;1.02;;;23.80;99.90;;;;;;4898224;29;39397;-76